Time;durP1;ratioP1;P1;durP2;ratioP2;P2;SDS_P1;SDS_P2;PMS_P1;PMS_P2;Temp;Humidity;BMP_temperature;BMP_pressure;BME280_temperature;BME280_humidity;BME280_pressure;Samples;Min_cycle;Max_cycle;Signal;HPM_P1;HPM_P2
2022/10/13 00:00:31;;;;;;;9.68;5.25;;;;;;;9.66;99.21;97807.28;5046900;28;20120;-63
2022/10/13 00:03:00;;;;;;;9.43;4.93;;;;;;;7.65;98.91;97500.53;5047337;28;20115;-61
2022/10/13 00:05:28;;;;;;;9.50;5.70;;;;;;;9.58;100.00;97801.91;5046838;28;20049;-61
2022/10/13 00:07:55;;;;;;;8.75;5.10;;;;;;;9.73;97.68;97807.53;5046871;28;20571;-61
2022/10/13 00:10:23;;;;;;;8.00;4.85;;;;;;;9.72;96.60;97810.66;5046696;28;20057;-62
2022/10/13 00:12:50;;;;;;;10.20;5.15;;;;;;;9.28;96.61;97734.91;5047020;28;20053;-61
2022/10/13 00:15:18;;;;;;;7.22;4.53;;;;;;;9.69;96.58;97805.81;5045472;28;20138;-62
2022/10/13 00:17:44;;;;;;;8.18;4.68;;;;;;;9.09;97.23;97720.84;5045240;28;20473;-60
2022/10/13 00:20:11;;;;;;;9.68;4.93;;;;;;;9.17;98.75;97762.22;5046551;28;20522;-59
2022/10/13 00:22:38;;;;;;;8.30;5.50;;;;;;;9.52;99.43;97806.84;5045495;28;20084;-60
2022/10/13 00:25:05;;;;;;;12.43;6.15;;;;;;;9.57;99.32;97809.38;5046905;28;20084;-60
2022/10/13 00:27:32;;;;;;;12.32;5.60;;;;;;;9.23;99.47;97765.59;5046940;28;20499;-61
2022/10/13 00:29:58;;;;;;;10.18;6.25;;;;;;;9.11;100.00;97746.19;5045450;28;20139;-61
2022/10/13 00:32:25;;;;;;;14.05;5.75;;;;;;;9.07;99.93;97737.00;5046630;28;20504;-62
2022/10/13 00:34:52;;;;;;;10.45;5.80;;;;;;;9.18;99.25;97746.44;5046946;28;20917;-60
2022/10/13 00:37:18;;;;;;;7.78;5.38;;;;;;;9.54;99.49;97792.66;5045894;28;20053;-60
2022/10/13 00:39:45;;;;;;;9.27;4.70;;;;;;;9.30;98.38;97746.44;5045888;28;20727;-60
2022/10/13 00:42:12;;;;;;;14.32;5.30;;;;;;;9.53;97.75;97791.84;5044857;28;20139;-63
2022/10/13 00:44:57;;;;;;;9.88;5.57;;;;;;;9.53;98.13;97794.59;5046339;28;20144;-64
2022/10/13 00:47:45;;;;;;;7.70;5.03;;;;;;;9.47;98.39;97786.91;5045927;28;20487;-61
2022/10/13 00:50:16;;;;;;;9.80;5.63;;;;;;;9.05;97.67;97719.94;5045847;28;20512;-61
2022/10/13 00:52:43;;;;;;;10.55;5.22;;;;;;;9.23;96.86;97743.47;5044549;28;20057;-61
2022/10/13 00:55:15;;;;;;;9.13;5.25;;;;;;;9.48;97.75;97783.81;5045834;28;20136;-61
2022/10/13 00:57:45;;;;;;;10.35;5.75;;;;;;;9.09;98.74;97740.19;5045323;28;20088;-60
2022/10/13 01:00:12;;;;;;;7.75;5.32;;;;;;;9.53;98.10;97786.31;5044451;28;20056;-61
2022/10/13 01:02:39;;;;;;;8.90;5.15;;;;;;;9.53;97.97;97791.06;5045962;28;20596;-60
2022/10/13 01:05:07;;;;;;;8.43;4.80;;;;;;;9.43;97.66;97792.31;5045801;28;20157;-60
2022/10/13 01:07:34;;;;;;;7.95;4.70;;;;;;;9.39;98.49;97791.38;5045556;28;20106;-61
2022/10/13 01:10:01;;;;;;;9.35;4.97;;;;;;;9.08;98.92;97775.34;5045972;28;20145;-63
2022/10/13 01:12:40;;;;;;;10.98;5.00;;;;;;;9.48;99.10;97778.28;5044572;28;20056;-60
2022/10/13 01:15:18;;;;;;;8.57;5.03;;;;;;;9.43;99.95;97781.25;5044118;28;20143;-61
2022/10/13 01:18:02;;;;;;;10.32;5.03;;;;;;;9.36;100.00;97791.28;5045499;28;20494;-60
2022/10/13 01:20:38;;;;;;;8.48;5.75;;;;;;;9.47;99.30;97787.69;5045410;28;20271;-60
2022/10/13 01:23:32;;;;;;;10.07;5.65;;;;;;;9.47;97.86;97781.38;5044259;28;20081;-60
2022/10/13 01:26:17;;;;;;;10.18;4.97;;;;;;;9.45;98.17;97790.03;5045479;28;20136;-59
2022/10/13 01:29:23;;;;;;;8.32;5.05;;;;;;;9.40;99.17;97781.13;5045524;28;20132;-61
2022/10/13 01:32:10;;;;;;;8.77;5.28;;;;;;;9.28;100.00;97784.69;5045022;28;20737;-62
2022/10/13 01:34:40;;;;;;;10.15;5.63;;;;;;;9.30;100.00;97765.81;5045601;28;20057;-61
2022/10/13 01:37:31;;;;;;;8.90;5.28;;;;;;;9.41;99.97;97766.97;5043430;28;20052;-61
2022/10/13 01:40:16;;;;;;;11.82;4.80;;;;;;;9.39;99.03;97774.78;5044598;28;20140;-60
2022/10/13 01:42:49;;;;;;;10.52;5.35;;;;;;;9.37;98.38;97771.59;5045134;28;20591;-61
2022/10/13 01:45:20;;;;;;;13.02;5.13;;;;;;;9.34;98.00;97777.81;5044675;28;20135;-63
2022/10/13 01:47:49;;;;;;;10.82;5.60;;;;;;;8.62;98.11;97700.28;5045305;28;20122;-61
2022/10/13 01:50:18;;;;;;;8.75;5.20;;;;;;;8.95;99.01;97731.44;5044849;28;20053;-62
2022/10/13 01:52:47;;;;;;;9.07;5.63;;;;;;;9.27;100.00;97788.59;5045132;28;20064;-63
2022/10/13 01:55:13;;;;;;;9.10;5.22;;;;;;;8.83;99.27;97693.56;5045042;28;20052;-61
2022/10/13 01:57:42;;;;;;;8.93;4.57;;;;;;;9.26;98.93;97764.91;5043593;28;20057;-61
2022/10/13 02:00:18;;;;;;;7.75;4.47;;;;;;;9.24;99.24;97753.38;5043600;28;20662;-60
2022/10/13 02:03:09;;;;;;;13.48;5.80;;;;;;;9.24;99.89;97753.38;5045327;28;20095;-59
2022/10/13 02:05:56;;;;;;;8.07;4.80;;;;;;;8.74;99.98;97687.31;5044371;28;20132;-62
2022/10/13 02:08:33;;;;;;;9.38;5.22;;;;;;;9.10;100.00;97733.53;5042668;28;20110;-61
2022/10/13 02:11:16;;;;;;;7.78;4.40;;;;;;;9.19;100.00;97742.53;5043614;28;20136;-62
2022/10/13 02:14:15;;;;;;;10.68;5.20;;;;;;;9.15;100.00;97747.94;5043808;28;20057;-61
2022/10/13 02:16:44;;;;;;;13.95;5.90;;;;;;;9.12;99.84;97733.97;5044784;28;20068;-61
2022/10/13 02:19:14;;;;;;;12.73;4.97;;;;;;;9.13;98.29;97754.97;5043456;28;20132;-61
2022/10/13 02:21:42;;;;;;;6.47;4.07;;;;;;;9.14;97.88;97746.31;5044743;28;20136;-61
2022/10/13 02:24:09;;;;;;;10.25;5.07;;;;;;;9.03;98.32;97734.09;5044525;28;20137;-60
2022/10/13 02:26:37;;;;;;;6.53;3.90;;;;;;;9.03;98.52;97731.34;5044231;28;20511;-60
2022/10/13 02:29:09;;;;;;;11.45;5.10;;;;;;;9.00;98.85;97742.28;5044540;28;20155;-60
2022/10/13 02:31:37;;;;;;;10.50;4.63;;;;;;;8.86;98.86;97694.81;5044144;28;20127;-61
2022/10/13 02:34:04;;;;;;;7.57;4.03;;;;;;;9.04;99.03;97732.16;5044561;28;20091;-62
2022/10/13 02:36:31;;;;;;;10.25;4.47;;;;;;;8.87;100.00;97735.91;5044505;28;20126;-60
2022/10/13 02:38:57;;;;;;;6.72;4.47;;;;;;;8.30;100.00;97646.72;5042990;28;20135;-61
2022/10/13 02:41:24;;;;;;;8.73;5.13;;;;;;;8.63;100.00;97686.13;5043948;28;20091;-60
2022/10/13 02:43:51;;;;;;;11.20;5.43;;;;;;;8.98;99.62;97730.75;5044417;28;20151;-60
2022/10/13 02:46:17;;;;;;;9.43;5.15;;;;;;;8.98;99.63;97730.75;5044069;28;20049;-60
2022/10/13 02:48:44;;;;;;;9.10;5.18;;;;;;;8.29;99.72;97602.91;5043792;28;20143;-60
2022/10/13 02:51:11;;;;;;;12.38;6.18;;;;;;;8.57;99.15;97642.53;5042370;28;20098;-61
2022/10/13 02:53:37;;;;;;;9.50;5.85;;;;;;;8.98;98.70;97703.13;5044268;28;20073;-61
2022/10/13 02:56:04;;;;;;;37.58;13.40;;;;;;;8.90;97.43;97707.59;5042673;28;20041;-61
2022/10/13 02:58:31;;;;;;;533.88;182.52;;;;;;;9.11;97.46;97724.91;5044503;28;20089;-60
2022/10/13 03:01:13;;;;;;;728.00;280.35;;;;;;;9.07;97.38;97723.97;5044135;28;20076;-62
2022/10/13 03:03:40;;;;;;;551.03;186.05;;;;;;;9.11;96.85;97724.09;5044183;28;20053;-61
2022/10/13 03:06:07;;;;;;;230.48;70.35;;;;;;;9.00;98.26;97733.97;5042936;28;20063;-61
2022/10/13 03:08:34;;;;;;;26.73;12.98;;;;;;;8.97;99.10;97729.16;5044125;28;20084;-61
2022/10/13 03:11:01;;;;;;;15.52;9.35;;;;;;;9.06;98.61;97732.59;5044308;28;20131;-62
2022/10/13 03:13:27;;;;;;;13.10;6.35;;;;;;;8.91;98.36;97708.41;5043857;28;20145;-62
2022/10/13 03:15:54;;;;;;;20.02;10.23;;;;;;;8.86;99.57;97712.22;5042410;28;20148;-60
2022/10/13 03:18:21;;;;;;;8.65;5.10;;;;;;;8.98;98.45;97736.28;5043818;28;20110;-61
2022/10/13 03:20:55;;;;;;;7.47;5.20;;;;;;;8.99;98.92;97727.63;5045647;28;20091;-64
2022/10/13 03:23:22;;;;;;;12.85;5.72;;;;;;;8.22;98.58;97617.22;5046491;28;20142;-60
2022/10/13 03:25:49;;;;;;;9.10;6.20;;;;;;;8.97;98.56;97738.25;5045876;28;20516;-63
2022/10/13 03:28:16;;;;;;;12.15;6.60;;;;;;;8.71;98.76;97682.47;5046071;28;20092;-60
2022/10/13 03:30:42;;;;;;;12.45;6.35;;;;;;;8.85;99.17;97737.41;5047925;28;20053;-60
2022/10/13 03:33:09;;;;;;;10.18;5.68;;;;;;;8.87;99.36;97732.34;5047817;28;20507;-60
2022/10/13 03:35:36;;;;;;;9.25;5.60;;;;;;;8.79;99.96;97719.44;5045996;28;20120;-63
2022/10/13 03:38:03;;;;;;;9.80;4.70;;;;;;;8.37;99.96;97660.78;5047483;28;20045;-61
2022/10/13 03:40:29;;;;;;;9.65;5.47;;;;;;;8.86;99.38;97727.97;5047309;28;20061;-60
2022/10/13 03:42:56;;;;;;;8.43;4.88;;;;;;;8.89;99.15;97732.81;5047819;28;20115;-61
2022/10/13 03:45:23;;;;;;;11.23;6.00;;;;;;;8.74;99.93;97730.72;5046465;28;20111;-61
2022/10/13 03:47:49;;;;;;;10.20;6.20;;;;;;;8.79;99.26;97724.94;5047352;28;20059;-61
2022/10/13 03:50:16;;;;;;;10.95;6.43;;;;;;;8.37;98.34;97657.22;5034790;28;20057;-62
2022/10/13 03:52:43;;;;;;;14.98;6.68;;;;;;;8.49;98.79;97676.56;5047272;28;20146;-60
2022/10/13 03:55:09;;;;;;;13.48;7.40;;;;;;;8.80;99.02;97723.81;5047302;28;20053;-61
2022/10/13 03:57:36;;;;;;;10.77;5.82;;;;;;;8.75;100.00;97715.75;5047589;28;20084;-62
2022/10/13 04:00:03;;;;;;;11.98;6.68;;;;;;;8.78;100.00;97721.41;5046628;28;20519;-62
2022/10/13 04:02:33;;;;;;;17.23;8.32;;;;;;;8.52;100.00;97684.19;5045664;28;20068;-59
2022/10/13 04:04:59;;;;;;;11.55;5.32;;;;;;;8.72;100.00;97711.72;5046936;28;20161;-62
2022/10/13 04:07:26;;;;;;;7.72;5.50;;;;;;;8.53;100.00;97696.81;5031204;28;20570;-60
2022/10/13 04:09:53;;;;;;;14.23;5.00;;;;;;;8.27;100.00;97654.88;5046446;28;20096;-62
2022/10/13 04:12:19;;;;;;;9.48;5.18;;;;;;;8.27;100.00;97688.81;5046703;28;20095;-61
2022/10/13 04:14:46;;;;;;;9.00;4.80;;;;;;;8.59;100.00;97700.97;5046569;28;20091;-61
2022/10/13 04:17:13;;;;;;;10.95;6.65;;;;;;;8.65;100.00;97705.13;5045273;28;20452;-62
2022/10/13 04:19:40;;;;;;;7.75;4.63;;;;;;;8.58;100.00;97716.72;5046591;28;20127;-60
2022/10/13 04:22:06;;;;;;;7.35;4.93;;;;;;;8.49;100.00;97706.91;5044966;28;20135;-63
2022/10/13 04:24:33;;;;;;;9.77;4.45;;;;;;;8.02;100.00;97636.59;5046277;28;20512;-60
2022/10/13 04:26:59;;;;;;;9.95;5.38;;;;;;;8.52;100.00;97696.00;5046380;28;20088;-59
2022/10/13 04:29:26;;;;;;;8.80;4.88;;;;;;;8.56;100.00;97708.00;5044995;28;20158;-61
2022/10/13 04:31:53;;;;;;;9.85;5.95;;;;;;;8.44;100.00;97682.31;5044214;28;20112;-59
2022/10/13 04:34:19;;;;;;;10.05;5.40;;;;;;;8.57;100.00;97703.25;5045546;28;20127;-59
2022/10/13 04:36:49;;;;;;;6.72;4.75;;;;;;;6.91;100.00;97442.72;5046791;28;20084;-59
2022/10/13 04:39:17;;;;;;;12.27;5.25;;;;;;;8.57;100.00;97703.25;5045720;28;20452;-60
2022/10/13 04:41:44;;;;;;;8.23;4.82;;;;;;;8.44;100.00;97696.13;5045686;28;20148;-60
2022/10/13 04:44:10;;;;;;;10.27;5.78;;;;;;;8.51;100.00;97710.97;5044836;28;20132;-60
2022/10/13 04:46:37;;;;;;;10.93;5.75;;;;;;;8.57;100.00;97709.59;5044672;28;20092;-61
2022/10/13 04:49:04;;;;;;;11.05;5.50;;;;;;;8.65;100.00;97710.66;5045366;28;20136;-60
2022/10/13 04:51:31;;;;;;;12.80;5.82;;;;;;;8.78;100.00;97709.53;5042120;28;20083;-59
2022/10/13 04:54:00;;;;;;;12.05;6.55;;;;;;;8.75;100.00;97708.28;5046340;28;20135;-60
2022/10/13 04:56:27;;;;;;;14.10;5.45;;;;;;;8.71;100.00;97714.84;5045831;28;20575;-60
2022/10/13 04:58:54;;;;;;;10.95;6.10;;;;;;;8.80;100.00;97715.53;5045849;28;20049;-60
2022/10/13 05:01:23;;;;;;;10.30;5.45;;;;;;;8.56;100.00;97679.56;5045375;28;20092;-62
2022/10/13 05:03:54;;;;;;;14.60;5.28;;;;;;;8.81;99.97;97692.28;5045845;28;20076;-60
2022/10/13 05:06:24;;;;;;;10.85;5.05;;;;;;;8.59;100.00;97648.50;5045782;28;20049;-60
2022/10/13 05:08:51;;;;;;;13.27;6.28;;;;;;;7.69;99.36;97495.94;5046073;28;20460;-60
2022/10/13 05:11:21;;;;;;;11.60;6.53;;;;;;;9.19;99.33;97704.66;5044279;28;20305;-60
2022/10/13 05:13:48;;;;;;;30.77;19.08;;;;;;;8.73;97.18;97654.50;5036028;28;20087;-60
2022/10/13 05:16:17;;;;;;;31.15;18.60;;;;;;;8.94;96.02;97646.94;5044509;28;20096;-60
2022/10/13 05:18:44;;;;;;;32.00;21.45;;;;;;;9.50;95.82;97726.16;5046033;28;20555;-61
2022/10/13 05:21:13;;;;;;;33.45;20.63;;;;;;;9.57;95.04;97715.34;5045651;28;20064;-60
2022/10/13 05:23:40;;;;;;;35.97;20.48;;;;;;;9.53;94.73;97692.28;5045498;28;20114;-60
2022/10/13 05:26:10;;;;;;;31.88;20.02;;;;;;;9.52;94.61;97679.63;5044011;28;20606;-60
2022/10/13 05:28:38;;;;;;;25.00;15.48;;;;;;;10.02;93.96;97729.78;5045675;28;20157;-62
2022/10/13 05:31:12;;;;;;;22.45;15.48;;;;;;;10.13;94.11;97727.38;5044011;28;20152;-60
2022/10/13 05:33:39;;;;;;;26.63;17.08;;;;;;;10.30;93.61;97727.88;5043823;28;20551;-60
2022/10/13 05:36:08;;;;;;;27.58;16.08;;;;;;;10.11;92.94;97674.31;5045097;28;20611;-62
2022/10/13 05:38:35;;;;;;;26.08;15.07;;;;;;;10.00;91.19;97646.31;5045047;28;20333;-60
2022/10/13 05:41:08;;;;;;;28.70;15.02;;;;;;;10.65;90.79;97717.78;5043425;28;20057;-61
2022/10/13 05:43:36;;;;;;;26.73;11.40;;;;;;;10.77;89.90;97718.88;5044929;28;20049;-60
2022/10/13 05:46:03;;;;;;;25.00;11.65;;;;;;;10.81;88.54;97719.78;5044669;28;20060;-61
2022/10/13 05:48:30;;;;;;;19.50;11.50;;;;;;;10.51;87.77;97678.63;5045277;28;20478;-61
2022/10/13 05:50:59;;;;;;;27.15;12.48;;;;;;;10.49;86.88;97631.09;5044757;28;20520;-62
2022/10/13 05:53:30;;;;;;;18.17;10.35;;;;;;;11.32;86.30;97732.59;5044926;28;20076;-60
2022/10/13 05:56:05;;;;;;;17.63;9.40;;;;;;;11.46;86.26;97741.31;5034472;28;20096;-62
2022/10/13 05:58:43;;;;;;;15.20;9.50;;;;;;;11.25;85.70;97704.72;5039538;28;20299;-62
2022/10/13 06:01:14;;;;;;;13.68;8.38;;;;;;;11.69;85.71;97756.97;5036937;28;20087;-61
2022/10/13 06:03:42;;;;;;;22.63;10.18;;;;;;;11.86;85.26;97741.88;5040177;28;20048;-64
2022/10/13 06:06:08;;;;;;;25.70;10.95;;;;;;;12.01;84.40;97741.06;5042707;28;20138;-61
2022/10/13 06:08:36;;;;;;;48.35;12.90;;;;;;;11.71;83.67;97671.34;5043739;28;20115;-63
2022/10/13 06:11:04;;;;;;;12.90;7.78;;;;;;;10.71;83.37;97541.00;5042939;28;20138;-68
2022/10/13 06:13:32;;;;;;;15.32;6.85;;;;;;;11.95;83.46;97675.84;5043919;28;20088;-63
2022/10/13 06:15:59;;;;;;;9.13;5.78;;;;;;;11.93;83.88;97667.09;5042518;28;20172;-66
2022/10/13 06:18:26;;;;;;;12.52;6.38;;;;;;;12.64;83.07;97755.50;5044649;28;20052;-67
2022/10/13 06:20:53;;;;;;;14.80;9.00;;;;;;;12.79;82.96;97749.84;5042412;28;20048;-61
2022/10/13 06:23:19;;;;;;;11.38;7.43;;;;;;;12.52;82.57;97670.28;5043620;28;20144;-64
2022/10/13 06:25:50;;;;;;;11.50;5.53;;;;;;;13.09;82.22;97781.47;5041270;28;20486;-60
2022/10/13 06:28:18;;;;;;;6.78;4.18;;;;;;;13.23;80.99;97742.78;5042712;28;20048;-63
2022/10/13 06:30:48;;;;;;;6.70;4.25;;;;;;;13.37;80.35;97745.78;5042118;28;20052;-60
2022/10/13 06:33:14;;;;;;;8.77;4.85;;;;;;;13.28;80.26;97722.19;5042443;28;20122;-64
2022/10/13 06:35:41;;;;;;;8.48;5.50;;;;;;;13.05;80.42;97680.47;5029579;28;20136;-62
2022/10/13 06:38:08;;;;;;;15.70;5.68;;;;;;;13.28;79.12;97680.44;5024324;28;20100;-61
2022/10/13 06:40:35;;;;;;;11.55;5.47;;;;;;;13.20;78.59;97660.06;5023677;28;20057;-62
2022/10/13 06:43:02;;;;;;;7.80;5.95;;;;;;;13.64;78.66;97714.03;5032652;28;20150;-64
2022/10/13 06:45:29;;;;;;;8.20;5.95;;;;;;;13.66;78.64;97672.72;5043772;28;20144;-64
2022/10/13 06:47:55;;;;;;;16.05;8.80;;;;;;;14.35;78.31;97737.41;5041681;28;20092;-61
2022/10/13 06:50:23;;;;;;;9.60;5.60;;;;;;;14.49;76.81;97737.59;5030438;28;20545;-65
2022/10/13 06:52:49;;;;;;;8.85;4.97;;;;;;;13.89;75.97;97639.25;5039755;28;20053;-61
2022/10/13 06:55:16;;;;;;;8.90;5.75;;;;;;;14.26;75.36;97651.28;5042761;28;20049;-61
2022/10/13 06:57:43;;;;;;;9.40;5.13;;;;;;;14.71;73.45;97684.50;5043931;28;20091;-68
2022/10/13 07:00:10;;;;;;;8.57;5.35;;;;;;;15.21;73.11;97733.22;5043063;28;20048;-64
2022/10/13 07:02:36;;;;;;;8.77;4.90;;;;;;;15.42;72.44;97730.66;5039460;28;20508;-62
2022/10/13 07:05:03;;;;;;;10.02;5.55;;;;;;;15.63;71.68;97718.88;5043063;28;20140;-62
2022/10/13 07:07:30;;;;;;;8.13;4.13;;;;;;;15.59;69.93;97665.78;5041632;28;20131;-66
2022/10/13 07:09:57;;;;;;;9.50;4.93;;;;;;;15.96;69.51;97739.09;5025990;28;20115;-63
2022/10/13 07:12:23;;;;;;;7.63;4.32;;;;;;;15.91;68.99;97683.56;5023736;28;20057;-63
2022/10/13 07:14:50;;;;;;;9.20;4.30;;;;;;;16.48;68.74;97716.28;5023751;28;20449;-63
2022/10/13 07:17:16;;;;;;;8.52;4.82;;;;;;;16.40;68.30;97686.66;5025850;28;20519;-61
2022/10/13 07:19:47;;;;;;;9.23;5.38;;;;;;;16.39;67.31;97648.66;5038178;28;20053;-62
2022/10/13 07:22:14;;;;;;;9.55;4.65;;;;;;;16.38;67.00;97649.88;5040879;28;20115;-63
2022/10/13 07:24:41;;;;;;;15.48;8.90;;;;;;;17.21;66.31;97714.09;5043590;28;20155;-64
2022/10/13 07:27:08;;;;;;;10.63;5.38;;;;;;;17.40;64.81;97705.34;5043740;28;20484;-62
2022/10/13 07:29:34;;;;;;;14.60;4.75;;;;;;;17.28;65.07;97702.91;5043808;28;20106;-65
2022/10/13 07:32:01;;;;;;;15.63;4.93;;;;;;;17.62;64.57;97701.38;5043958;28;20538;-63
2022/10/13 07:34:28;;;;;;;8.23;4.45;;;;;;;17.60;64.58;97692.56;5041890;28;20899;-67
2022/10/13 07:36:54;;;;;;;8.13;4.28;;;;;;;18.01;63.51;97696.53;5022117;28;20536;-63
2022/10/13 07:39:21;;;;;;;7.60;3.60;;;;;;;17.30;62.92;97571.69;5023836;28;20138;-62
2022/10/13 07:41:47;;;;;;;7.53;3.63;;;;;;;17.83;62.56;97618.06;5023292;28;20083;-64
2022/10/13 07:44:17;;;;;;;6.72;3.38;;;;;;;18.18;61.46;97645.19;5023311;28;20141;-64
2022/10/13 07:46:43;;;;;;;3.95;2.65;;;;;;;17.90;62.77;97684.53;5040822;28;20057;-65
2022/10/13 07:49:10;;;;;;;8.18;2.90;;;;;;;17.61;62.97;97596.09;5043490;28;20131;-65
2022/10/13 07:51:42;;;;;;;9.88;4.20;;;;;;;18.21;62.64;97678.03;5043843;28;20053;-63
2022/10/13 07:54:09;;;;;;;8.30;3.92;;;;;;;18.08;62.30;97685.31;5043380;28;20107;-65
2022/10/13 07:56:37;;;;;;;3.40;2.67;;;;;;;18.47;61.80;97672.00;5041816;28;20084;-64
2022/10/13 07:59:04;;;;;;;4.90;3.55;;;;;;;16.37;61.36;97304.34;5042063;28;20060;-61
2022/10/13 08:01:30;;;;;;;8.40;3.38;;;;;;;18.52;60.91;97660.34;5041741;28;20444;-63
2022/10/13 08:03:58;;;;;;;8.60;3.33;;;;;;;17.00;64.30;97725.25;5043535;28;20060;-62
2022/10/13 08:06:25;;;;;;;6.30;3.78;;;;;;;16.94;67.35;97671.66;5044421;28;20135;-63
2022/10/13 08:08:51;;;;;;;14.45;4.75;;;;;;;17.16;67.26;97672.50;5046924;28;20124;-64
2022/10/13 08:11:18;;;;;;;5.93;4.00;;;;;;;17.57;64.98;97676.56;5045126;28;20076;-62
2022/10/13 08:13:50;;;;;;;9.70;3.35;;;;;;;17.32;64.39;97609.31;5045331;28;20064;-63
2022/10/13 08:16:17;;;;;;;6.05;3.70;;;;;;;17.71;63.55;97670.94;5046721;28;20412;-63
2022/10/13 08:18:45;;;;;;;4.55;3.50;;;;;;;17.56;63.17;97670.13;5046711;28;20041;-60
2022/10/13 08:21:14;;;;;;;5.57;3.22;;;;;;;17.20;62.91;97578.13;5045668;28;20115;-65
2022/10/13 08:24:09;;;;;;;9.80;3.50;;;;;;;18.22;62.26;97662.03;5026275;28;20053;-60
2022/10/13 08:26:36;;;;;;;5.10;3.57;;;;;;;18.54;62.17;97657.91;5025815;28;20142;-63
2022/10/13 08:29:03;;;;;;;11.30;5.03;;;;;;;18.05;62.83;97658.09;5027164;28;20128;-65
2022/10/13 08:31:54;;;;;;;5.45;3.92;;;;;;;17.93;62.87;97658.50;5033026;28;20046;-69
2022/10/13 08:34:22;;;;;;;6.93;3.70;;;;;;;17.85;62.21;97620.47;5041712;28;20041;-64
2022/10/13 08:36:51;;;;;;;7.43;4.47;;;;;;;18.13;59.25;97611.97;5040930;28;20119;-64
2022/10/13 08:39:20;;;;;;;8.35;4.18;;;;;;;18.43;58.48;97609.47;5038736;28;20084;-62
2022/10/13 08:41:47;;;;;;;12.18;4.85;;;;;;;18.72;58.80;97641.81;5026104;28;20053;-60
2022/10/13 08:44:33;;;;;;;8.02;4.13;;;;;;;18.93;57.10;97641.69;5041325;28;20048;-61
2022/10/13 08:47:26;;;;;;;13.70;4.93;;;;;;;18.78;57.41;97642.97;5045769;28;20522;-63
2022/10/13 08:49:55;;;;;;;8.60;4.75;;;;;;;18.72;56.18;97650.22;5044294;28;20048;-62
2022/10/13 08:52:27;;;;;;;;;;;;;;;19.05;55.71;97638.41;5035953;28;20053;-60
2022/10/13 08:54:55;;;;;;;6.60;4.45;;;;;;;19.00;55.20;97647.25;5039019;28;19959;-61
2022/10/13 08:57:22;;;;;;;17.85;6.22;;;;;;;19.24;54.97;97643.47;5033577;28;20061;-62
2022/10/13 08:59:51;;;;;;;6.90;4.07;;;;;;;19.29;54.23;97598.13;5046116;28;20401;-61
2022/10/13 09:02:29;;;;;;;9.23;5.07;;;;;;;19.70;52.84;97628.25;5037461;28;20115;-61
2022/10/13 09:05:01;;;;;;;8.88;5.43;;;;;;;19.57;51.34;97582.22;5045852;28;20057;-61
2022/10/13 09:07:33;;;;;;;22.88;10.90;;;;;;;20.29;50.38;97632.50;5040269;28;20061;-61
2022/10/13 09:10:00;;;;;;;18.50;9.13;;;;;;;19.94;49.95;97542.84;5025623;28;20130;-64
2022/10/13 09:12:26;;;;;;;10.45;5.25;;;;;;;20.59;50.05;97630.53;5024336;28;20153;-62
2022/10/13 09:15:08;;;;;;;6.22;3.92;;;;;;;20.78;49.27;97626.25;5025525;28;20388;-63
2022/10/13 09:17:37;;;;;;;6.88;4.32;;;;;;;20.85;48.77;97597.97;5025583;28;20539;-62
2022/10/13 09:20:17;;;;;;;6.20;4.00;;;;;;;21.43;47.98;97627.69;5025668;28;20508;-63
2022/10/13 09:22:58;;;;;;;9.65;4.70;;;;;;;21.37;46.98;97624.56;5025547;28;20045;-64
2022/10/13 09:25:25;;;;;;;7.97;4.00;;;;;;;21.46;47.83;97621.19;5025200;28;20372;-63
2022/10/13 09:27:53;;;;;;;5.85;4.30;;;;;;;21.81;47.24;97621.44;5025665;28;20566;-62
2022/10/13 09:30:30;;;;;;;6.53;5.80;;;;;;;22.03;45.76;97614.19;5025556;28;20459;-62
2022/10/13 09:33:12;;;;;;;7.50;4.22;;;;;;;21.92;46.60;97609.94;5033095;28;20080;-67
2022/10/13 09:35:47;;;;;;;6.20;4.47;;;;;;;21.41;45.60;97518.19;5035723;28;20048;-66
2022/10/13 09:38:21;;;;;;;6.97;4.65;;;;;;;22.10;44.81;97605.56;5037922;28;20585;-66
2022/10/13 09:41:15;;;;;;;9.45;5.72;;;;;;;21.86;44.67;97601.16;5028598;28;20620;-59
2022/10/13 09:43:58;;;;;;;8.18;4.00;;;;;;;21.43;44.55;97555.22;5031027;28;20127;-65
2022/10/13 09:46:32;;;;;;;9.38;4.50;;;;;;;21.59;44.52;97597.59;5042471;28;20217;-62
2022/10/13 09:49:05;;;;;;;6.97;4.18;;;;;;;20.21;46.28;97552.19;5043039;28;20111;-62
2022/10/13 09:51:38;;;;;;;6.00;4.65;;;;;;;20.54;46.91;97540.09;5043039;28;20052;-62
2022/10/13 09:54:23;;;;;;;5.97;4.38;;;;;;;20.32;46.51;97559.28;5045318;28;20586;-60
2022/10/13 09:56:57;;;;;;;7.70;4.93;;;;;;;20.98;45.95;97579.28;5043430;28;20080;-61
2022/10/13 09:59:32;;;;;;;;;;;;;;;21.01;45.21;97567.16;5045553;28;20186;-61
2022/10/13 10:02:02;;;;;;;6.55;4.20;;;;;;;21.29;45.61;97572.38;5044959;28;20031;-61
2022/10/13 10:04:35;;;;;;;9.27;4.68;;;;;;;21.72;44.25;97563.97;5044445;28;20103;-61
2022/10/13 10:07:11;;;;;;;6.20;3.78;;;;;;;21.85;40.41;97554.44;5044168;28;20056;-61
2022/10/13 10:09:46;;;;;;;10.70;5.28;;;;;;;21.87;41.04;97552.00;5044586;28;20150;-62
2022/10/13 10:12:17;;;;;;;7.53;5.72;;;;;;;21.82;41.41;97540.41;5044412;28;20478;-62
2022/10/13 10:14:49;;;;;;;7.03;4.53;;;;;;;21.17;40.88;97423.59;5044018;28;20059;-62
2022/10/13 10:17:40;;;;;;;11.38;4.65;;;;;;;22.06;40.84;97541.94;5044252;28;20049;-62
2022/10/13 10:20:36;;;;;;;11.05;5.20;;;;;;;22.15;39.85;97539.34;5042791;28;20095;-61
2022/10/13 10:23:17;;;;;;;7.47;4.30;;;;;;;22.32;40.26;97533.31;5044320;28;20504;-60
2022/10/13 10:25:56;;;;;;;8.05;4.88;;;;;;;22.42;40.51;97526.66;5044036;28;20088;-61
2022/10/13 10:28:35;;;;;;;8.32;4.25;;;;;;;22.59;40.79;97529.56;5044080;28;20063;-62
2022/10/13 10:31:07;;;;;;;9.27;4.97;;;;;;;22.65;40.65;97514.50;5043973;28;20055;-61
2022/10/13 10:33:46;;;;;;;9.13;4.80;;;;;;;22.94;40.59;97508.94;5042731;28;20127;-60
2022/10/13 10:36:26;;;;;;;6.13;4.15;;;;;;;22.65;40.58;97465.66;5043969;28;20053;-62
2022/10/13 10:39:18;;;;;;;7.32;4.53;;;;;;;22.88;40.49;97505.06;5043910;28;20052;-62
2022/10/13 10:41:54;;;;;;;5.32;4.00;;;;;;;23.02;40.95;97501.88;5043736;28;20103;-62
2022/10/13 10:44:29;;;;;;;5.50;3.63;;;;;;;23.03;40.50;97478.06;5043995;28;20117;-61
2022/10/13 10:47:03;;;;;;;4.65;4.00;;;;;;;22.39;40.59;97372.25;5044361;28;20502;-62
2022/10/13 10:49:38;;;;;;;7.55;4.28;;;;;;;22.91;40.32;97481.56;5042921;28;20131;-62
2022/10/13 10:52:09;;;;;;;7.38;4.68;;;;;;;22.33;41.72;97486.13;5042859;28;20498;-61
2022/10/13 10:54:43;;;;;;;6.25;4.32;;;;;;;22.21;42.04;97481.94;5042828;28;20527;-64
2022/10/13 10:57:24;;;;;;;6.05;4.38;;;;;;;22.25;41.27;97473.41;5042584;28;20156;-61
2022/10/13 11:00:10;;;;;;;4.93;3.70;;;;;;;21.71;42.34;97470.09;5043975;28;20080;-61
2022/10/13 11:02:55;;;;;;;8.18;4.18;;;;;;;21.50;42.40;97462.03;5038871;28;20059;-63
2022/10/13 11:05:48;;;;;;;9.02;4.20;;;;;;;21.91;42.11;97462.44;5031310;28;20049;-61
2022/10/13 11:08:27;;;;;;;9.52;4.28;;;;;;;21.35;41.62;97418.44;5030764;28;20140;-67
2022/10/13 11:11:18;;;;;;;8.23;4.05;;;;;;;21.26;42.45;97454.06;5040106;28;20472;-63
2022/10/13 11:13:56;;;;;;;6.22;5.15;;;;;;;21.73;42.67;97450.72;5029904;28;20134;-62
2022/10/13 11:16:32;;;;;;;7.90;4.60;;;;;;;21.91;41.25;97456.00;5039625;28;20519;-64
2022/10/13 11:19:05;;;;;;;9.98;5.28;;;;;;;21.95;42.39;97451.88;5042590;28;20053;-58
2022/10/13 11:21:53;;;;;;;5.43;4.33;;;;;;;21.52;42.03;97450.31;5038281;28;20088;-63
2022/10/13 11:24:43;;;;;;;9.43;4.90;;;;;;;21.58;42.63;97449.38;5032119;28;20053;-61
2022/10/13 11:27:13;;;;;;;8.77;5.20;;;;;;;22.09;40.98;97434.66;5023890;28;20057;-60
2022/10/13 11:29:43;;;;;;;8.57;5.20;;;;;;;22.40;40.66;97438.78;5024779;28;20577;-60
2022/10/13 11:35:04;;;;;;;10.10;5.63;;;;;;;22.76;41.18;97426.66;5036661;28;20102;-64
2022/10/13 11:37:41;;;;;;;6.47;5.03;;;;;;;20.43;39.60;97067.44;5043464;28;20495;-63
2022/10/13 11:40:16;;;;;;;5.43;4.65;;;;;;;23.13;39.92;97420.44;5042036;28;20084;-62
2022/10/13 11:42:49;;;;;;;6.13;4.95;;;;;;;23.44;39.37;97422.44;5028120;28;20609;-63
2022/10/13 11:45:32;;;;;;;5.50;5.00;;;;;;;23.42;38.63;97373.22;5028151;28;20057;-59
2022/10/13 11:48:04;;;;;;;6.82;4.82;;;;;;;23.99;37.96;97424.13;5027352;28;20087;-66
2022/10/13 11:51:01;;;;;;;8.45;5.57;;;;;;;24.30;37.55;97416.69;5039754;28;20053;-69
2022/10/13 11:53:42;;;;;;;7.60;5.15;;;;;;;24.02;38.30;97423.22;5032065;28;20136;-65